»·PEaware :: N729MN KBFL-KMHV

N729MN :: KBFL-KMHV

FLIGHT INFORMATION

Flight Status: Arrived
Operator: Privately registered:
United States
More flights under this callsign
Pilot: Jason C. (22717)
Aircraft: Unknown
(DA62)
More flights by this aircraft type
Origin: KBFL Meadows
United States
Destination: KMHV Mojave
United States
More flights between these airports :: More routes between these airports
Route:
File this flight plan on PilotEdge
Remarks: CAT 6
Altitude:
(Current/Filed)
7,500ft
Speed:
(Current/Filed)
150kts
Departed: 03-Jan-19 01:03 PM
Arrived: 03-Jan-19 01:34 PM
Distance/Time
Traveled:
49nm/0:31
Distance/Time
To Go:
Arrived

Flight Plot

Page will automatically refresh every two minutes.


Map Options




Map Legend


Flown Route
Filed Route
Departure Airport
Arrival Airport
Navaid (VOR, NDB)
Fix

Horizontal Profiles

Position Reports

Time Latitude Longitude Heading Altitude Ground
Speed
03-Jan-19 12:36 35.435704 -119.052044 180 504ft 0kts
03-Jan-19 12:37 35.435704 -119.052044 180 504ft 0kts
03-Jan-19 12:38 35.435704 -119.052044 180 504ft 0kts
03-Jan-19 12:39 35.435704 -119.052044 180 504ft 0kts
03-Jan-19 12:40 35.435704 -119.052044 179 504ft 0kts
03-Jan-19 12:41 35.435704 -119.052044 179 504ft 0kts
03-Jan-19 12:42 35.435704 -119.052044 179 504ft 0kts
03-Jan-19 12:43 35.435704 -119.052044 179 504ft 0kts
03-Jan-19 12:44 35.435704 -119.052044 179 504ft 0kts
03-Jan-19 12:45 35.435704 -119.052044 179 504ft 0kts
03-Jan-19 12:46 35.435704 -119.052044 179 504ft 0kts
03-Jan-19 12:47 35.435704 -119.052044 179 504ft 0kts
03-Jan-19 12:48 35.435704 -119.052044 179 504ft 0kts
03-Jan-19 12:49 35.435704 -119.052044 179 504ft 0kts
03-Jan-19 12:50 35.435704 -119.052044 179 504ft 0kts
03-Jan-19 12:51 35.435491 -119.052746 266 502ft 6kts
03-Jan-19 12:52 35.433909 -119.054041 135 492ft 9kts
03-Jan-19 12:53 35.432424 -119.052248 133 493ft 12kts
03-Jan-19 12:54 35.429537 -119.048765 136 490ft 12kts
03-Jan-19 12:55 35.427249 -119.045966 135 484ft 11kts
03-Jan-19 12:56 35.425603 -119.044902 234 479ft 0kts
03-Jan-19 12:57 35.425603 -119.044902 234 479ft 0kts
03-Jan-19 12:58 35.425603 -119.044902 234 479ft 0kts
03-Jan-19 12:59 35.425603 -119.044902 234 479ft 0kts
03-Jan-19 13:00 35.425603 -119.044902 234 479ft 0kts
03-Jan-19 13:01 35.425630 -119.046261 315 476ft 0kts
03-Jan-19 13:02 35.441289 -119.065859 313 753ft 116kts
03-Jan-19 13:03 35.466304 -119.082292 42 1602ft 119kts
03-Jan-19 13:04 35.451595 -119.050215 136 2272ft 126kts
03-Jan-19 13:05 35.449331 -119.011897 87 2949ft 127kts
03-Jan-19 13:06 35.439677 -118.971553 116 3673ft 128kts
03-Jan-19 13:07 35.422511 -118.932696 117 4382ft 130kts
03-Jan-19 13:08 35.404560 -118.893211 120 5070ft 133kts
03-Jan-19 13:09 35.386274 -118.853484 120 5758ft 135kts
03-Jan-19 13:10 35.367717 -118.813228 120 6437ft 136kts
03-Jan-19 13:11 35.348898 -118.772432 120 7105ft 138kts
03-Jan-19 13:13 35.329862 -118.731235 120 7753ft 140kts
03-Jan-19 13:14 35.308836 -118.685540 120 7806ft 159kts
03-Jan-19 13:15 35.287003 -118.638451 121 7804ft 158kts
03-Jan-19 13:16 35.260065 -118.596561 135 7802ft 156kts
03-Jan-19 13:17 35.230480 -118.558366 135 7802ft 155kts
03-Jan-19 13:18 35.200796 -118.519659 131 7799ft 155kts
03-Jan-19 13:19 35.172090 -118.479957 133 7760ft 152kts
03-Jan-19 13:20 35.145071 -118.442745 133 7763ft 141kts
03-Jan-19 13:21 35.119658 -118.407550 133 7762ft 135kts
03-Jan-19 13:22 35.096125 -118.374868 133 7649ft 126kts
03-Jan-19 13:23 35.069537 -118.338280 133 6529ft 157kts
03-Jan-19 13:24 35.035800 -118.330347 212 5282ft 141kts
03-Jan-19 13:25 35.004756 -118.325410 107 4272ft 113kts
03-Jan-19 13:26 35.013860 -118.289282 101 4297ft 119kts
03-Jan-19 13:27 35.000662 -118.257610 64 4313ft 123kts
03-Jan-19 13:28 35.026938 -118.230780 27 4171ft 130kts
03-Jan-19 13:28 35.044685 -118.202945 60 3695ft 125kts
03-Jan-19 13:30 35.060727 -118.163405 68 3724ft 107kts
03-Jan-19 13:30 35.069073 -118.136198 72 3447ft 100kts
03-Jan-19 13:32 35.066676 -118.110918 218 3204ft 93kts
03-Jan-19 13:33 35.059147 -118.140937 268 2757ft 89kts
03-Jan-19 13:33 35.059201 -118.156908 267 2765ft 24kts
03-Jan-19 13:35 35.058395 -118.157803 179 2765ft 0kts
03-Jan-19 13:36 35.058395 -118.157803 179 2765ft 0kts
03-Jan-19 13:36 35.057793 -118.157925 216 2764ft 14kts
03-Jan-19 13:37 35.056419 -118.160110 345 2766ft 0kts
03-Jan-19 13:38 35.056419 -118.160110 345 2766ft 0kts
03-Jan-19 13:39 35.056419 -118.160110 345 2766ft 0kts

Navigation Log

Ident Type
Flight plan parsing failed, navigation log unavailable